Fort-de-France, Martinique
Current Conditions -  °F | °C
As of 1:30 PM on Thursday 18 Dec 2014 (Local Time) from TFFF Reporting Station
Clear Clear  
Wind Chill: 84°   Ceiling: Unl
Heat Index: 88°   Visibility: 6mi
Dew Point: 70°   Wind: 10mph
Humidity: 62%   Direction: 50°NE
Pressure: 29.91"   Gusts: NA
Location:  14.6°N, 61.08°W
Report Text: TFFF 181730Z AUTO 05009KT 360V090 9999 NSC 29/21 Q1013
Loading
Personal Weather Stations






























Interactive Weather Map New forecast layout! Learn more

10-Day Weather Forecast

Advertisements
Track Severe Weather on mobile